Time,TemperatureF,DewpointF,PressureIn,WindDirection,WindDirectionDegrees,WindSpeedMPH,WindSpeedGustMPH,Humidity,HourlyPrecipIn,Conditions,Clouds,dailyrainin,SolarRadiationWatts/m^2,SoftwareType,DateUTC
2014-07-23 00:32:00,66.0,56.0,-100.00,ENE,71,13.0,25.0,70,0.00,,,0.00,0.000000,,2014-07-23 06:32:00,
2014-07-23 00:43:00,66.0,56.0,-100.00,ENE,71,13.0,25.0,70,0.00,,,0.00,0.000000,,2014-07-23 06:43:00,
2014-07-23 00:51:00,66.0,57.0,-100.00,NW,310,6.0,19.0,74,0.00,,,0.00,0.000000,,2014-07-23 06:51:00,
2014-07-23 01:42:00,66.0,57.0,-100.00,NW,310,6.0,19.0,74,0.00,,,0.00,0.000000,,2014-07-23 07:42:00,
2014-07-23 02:32:00,65.0,58.0,-100.00,South,174,2.0,13.0,79,0.00,,,0.00,0.000000,,2014-07-23 08:32:00,
2014-07-23 02:42:00,65.0,58.0,-100.00,South,174,2.0,13.0,79,0.00,,,0.00,0.000000,,2014-07-23 08:42:00,
2014-07-23 02:51:00,65.0,59.0,-100.00,South,170,6.0,9.0,81,0.00,,,0.00,0.000000,,2014-07-23 08:51:00,
2014-07-23 03:33:00,65.0,59.0,-100.00,South,170,6.0,9.0,81,0.00,,,0.00,0.000000,,2014-07-23 09:33:00,
2014-07-23 03:44:00,65.0,59.0,-100.00,South,170,6.0,9.0,81,0.00,,,0.00,0.000000,,2014-07-23 09:44:00,
2014-07-23 03:51:00,63.0,56.0,-100.00,SSE,163,3.0,7.0,79,0.00,,,0.00,0.000000,,2014-07-23 09:51:00,
2014-07-23 04:43:00,63.0,56.0,-100.00,SSE,163,3.0,7.0,79,0.00,,,0.00,0.000000,,2014-07-23 10:43:00,
2014-07-23 04:51:00,64.0,58.0,-100.00,South,169,9.0,11.0,80,0.00,,,0.00,0.000000,,2014-07-23 10:51:00,
2014-07-23 05:33:00,64.0,58.0,-100.00,South,169,9.0,11.0,80,0.00,,,0.00,0.000000,,2014-07-23 11:33:00,
2014-07-23 05:42:00,64.0,58.0,-100.00,South,169,9.0,11.0,80,0.00,,,0.00,0.000000,,2014-07-23 11:42:00,
2014-07-23 05:51:00,65.0,58.0,-100.00,South,174,11.0,15.0,79,0.00,,,0.00,2.000000,,2014-07-23 11:51:00,
2014-07-23 06:51:00,66.0,60.0,-100.00,South,170,20.0,29.0,81,0.00,,,0.00,54.000000,,2014-07-23 12:51:00,
2014-07-23 07:32:00,66.0,60.0,-100.00,South,170,20.0,29.0,81,0.00,,,0.00,54.000000,,2014-07-23 13:32:00,
2014-07-23 08:32:00,70.0,62.0,-100.00,South,173,22.0,32.0,77,0.00,,,0.00,204.000000,,2014-07-23 14:32:00,
2014-07-23 08:43:00,70.0,62.0,-100.00,South,173,22.0,32.0,77,0.00,,,0.00,204.000000,,2014-07-23 14:43:00,
2014-07-23 09:33:00,73.0,63.0,-100.00,South,170,21.0,31.0,70,0.00,,,0.00,401.000000,,2014-07-23 15:33:00,
2014-07-23 09:43:00,73.0,63.0,-100.00,South,170,21.0,31.0,70,0.00,,,0.00,401.000000,,2014-07-23 15:43:00,
2014-07-23 09:51:00,74.0,61.0,-100.00,SSE,168,22.0,35.0,65,0.00,,,0.00,605.000000,,2014-07-23 15:51:00,
2014-07-23 10:43:00,74.0,61.0,-100.00,SSE,168,22.0,35.0,65,0.00,,,0.00,605.000000,,2014-07-23 16:43:00,
2014-07-23 11:33:00,79.0,63.0,-100.00,SSE,159,19.0,30.0,58,0.00,,,0.00,775.000000,,2014-07-23 17:33:00,
2014-07-23 12:42:00,85.0,64.0,-100.00,SSE,157,17.0,27.0,50,0.00,,,0.00,897.000000,,2014-07-23 18:42:00,
2014-07-23 13:51:00,89.0,59.0,-100.00,SSE,160,19.0,28.0,36,0.00,,,0.00,1000.000000,,2014-07-23 19:51:00,
2014-07-23 14:32:00,89.0,59.0,-100.00,SSE,160,19.0,28.0,36,0.00,,,0.00,1000.000000,,2014-07-23 20:32:00,
2014-07-23 14:43:00,89.0,59.0,-100.00,SSE,160,19.0,28.0,36,0.00,,,0.00,1000.000000,,2014-07-23 20:43:00,
2014-07-23 15:43:00,92.0,56.0,-100.00,SSE,152,21.0,32.0,30,0.00,,,0.00,959.000000,,2014-07-23 21:43:00,
2014-07-23 16:33:00,93.0,52.0,-100.00,SSE,161,22.0,31.0,25,0.00,,,0.00,865.000000,,2014-07-23 22:33:00,
2014-07-23 16:43:00,93.0,52.0,-100.00,SSE,161,22.0,31.0,25,0.00,,,0.00,865.000000,,2014-07-23 22:43:00,
2014-07-23 16:51:00,96.0,54.0,-100.00,SSE,162,23.0,31.0,25,0.00,,,0.00,740.000000,,2014-07-23 22:51:00,
2014-07-23 17:43:00,96.0,54.0,-100.00,SSE,162,23.0,31.0,25,0.00,,,0.00,740.000000,,2014-07-23 23:43:00,
2014-07-23 18:32:00,93.0,56.0,-100.00,SE,145,22.0,32.0,29,0.00,,,0.00,501.000000,,2014-07-24 00:32:00,
2014-07-23 18:51:00,93.0,56.0,-100.00,SSE,155,22.0,37.0,29,0.00,,,0.00,248.000000,,2014-07-24 00:51:00,